Date,TemperatureHighF,TemperatureAvgF,TemperatureLowF,DewpointHighF,DewpointAvgF,DewpointLowF,HumidityHigh,HumidityAvg,HumidityLow,PressureMaxIn,PressureMinIn,WindSpeedMaxMPH,WindSpeedAvgMPH,GustSpeedMaxMPH,PrecipitationSumIn
2012-1-1,54.0,42.1,32.7,38.2,26.5,17.5,73,54,50,17.72,17.72,25,7,25,0.00
2012-1-2,32.7,24.8,19.0,17.5,10.9,5.5,71,55,53,17.72,17.72,16,6,16,0.00
2012-1-3,27.3,20.5,14.9,12.2,6.9,2.0,56,55,53,17.72,17.72,12,3,12,0.00
2012-1-4,40.8,30.9,20.5,23.9,15.7,6.9,55,53,51,17.72,17.72,15,5,15,0.00
2012-1-5,52.3,39.4,28.4,34.3,24.3,16.7,63,55,50,17.72,17.72,14,4,14,0.00
2012-1-6,61.0,49.3,40.5,41.5,32.0,23.8,53,51,49,17.72,17.72,17,6,17,0.00
2012-1-7,53.1,45.1,34.9,35.6,28.9,19.1,69,53,51,17.72,17.72,10,3,10,0.00
2012-1-8,48.2,36.7,27.7,31.1,22.3,18.5,77,56,51,17.72,17.72,8,1,8,0.00
2012-1-9,52.5,40.6,31.1,34.9,24.2,16.0,53,52,51,17.72,17.72,8,1,8,0.00
2012-1-10,58.1,41.9,33.1,39.1,25.4,17.8,53,52,49,17.72,17.72,10,2,10,0.00
2012-1-11,48.7,43.2,37.6,48.7,36.8,21.1,100,81,51,17.72,17.72,15,2,15,0.43
2012-1-12,46.4,35.1,15.1,43.9,28.9,2.0,100,79,55,17.72,17.72,26,6,26,0.16
2012-1-13,19.9,17.3,14.2,6.4,4.2,1.4,61,56,55,17.72,17.72,20,7,20,0.00
2012-1-14,32.4,22.7,16.7,17.1,8.9,3.7,62,55,53,17.72,17.72,11,2,11,0.00
2012-1-15,35.6,23.6,10.8,19.7,11.1,3.2,75,59,52,17.72,17.72,10,2,10,0.00
2012-1-16,53.8,40.1,25.3,46.3,27.2,12.2,93,60,51,17.72,17.72,22,6,22,0.00
2012-1-17,58.6,46.5,30.4,54.1,34.7,15.3,100,65,49,17.72,17.72,26,7,26,1.97
2012-1-18,35.6,27.0,22.3,18.9,12.4,8.6,56,54,52,17.72,17.72,11,2,11,0.00
2012-1-19,38.7,28.2,19.8,21.9,13.5,6.2,57,54,51,17.72,17.72,13,5,13,0.00
2012-1-20,27.7,20.6,12.7,20.1,7.7,0.4,75,57,53,17.72,17.72,10,3,10,0.04
2012-1-21,29.1,24.5,22.1,24.0,17.4,13.9,82,74,68,17.72,17.72,0,0,0,0.00
2012-1-22,51.3,34.2,25.7,46.2,32.0,19.5,100,93,67,17.72,17.72,14,1,14,0.04
2012-1-23,57.2,48.2,38.1,51.8,35.9,23.0,100,64,51,17.72,17.72,23,7,23,0.67
2012-1-24,38.1,33.6,29.8,23.0,19.7,16.9,61,56,54,17.72,17.72,14,3,14,0.00
2012-1-25,37.2,32.0,26.4,33.4,22.1,15.5,99,68,54,17.72,17.72,9,1,9,0.04
2012-1-26,50.5,41.7,33.6,50.5,41.6,33.4,100,100,93,17.72,17.72,8,2,8,0.51
2012-1-27,42.3,35.8,34.2,42.3,23.0,6.6,100,63,30,17.72,17.72,9,2,9,0.00
2012-1-28,34.9,34.9,34.9,20.8,8.5,0.0,56,41,31,17.72,17.72,0,0,0,0.00
2012-1-29,45.9,35.3,23.0,29.2,14.3,0.0,55,46,31,17.72,17.72,23,4,23,1.10
2012-1-30,59.7,41.4,23.2,40.5,25.0,9.0,54,52,49,17.72,17.72,15,4,15,0.00
2012-1-31,61.3,51.3,46.9,41.7,34.4,30.8,71,52,49,17.72,17.72,20,6,20,0.28
2012-2-1,63.7,53.1,44.2,43.6,36.6,30.4,68,54,48,17.72,17.72,13,3,13,0.08
2012-2-2,55.4,43.3,34.0,37.1,30.7,23.3,89,62,50,17.72,17.72,8,1,8,0.00
2012-2-3,60.1,43.3,32.0,40.9,30.4,23.9,95,62,49,17.72,17.72,8,1,8,0.00
2012-2-4,45.0,40.4,38.1,39.2,32.5,24.2,100,76,50,17.72,17.72,10,2,10,0.24
2012-2-5,50.4,39.3,32.9,38.5,28.9,17.5,100,69,51,17.72,17.72,10,2,10,0.04
2012-2-6,52.9,37.4,24.6,35.3,24.0,15.8,82,59,50,17.72,17.72,11,1,11,0.00
2012-2-7,40.3,33.9,29.1,26.4,20.2,17.7,85,57,51,0.00,40.00,8,1,8,0.00
2012-2-8,35.6,32.5,30.6,28.9,20.4,16.5,90,61,52,0.00,40.00,6,1,6,0.04
2012-2-9,36.1,30.8,25.9,20.9,17.4,13.3,74,58,52,17.72,17.72,11,1,11,0.00
2012-2-10,33.6,30.4,24.1,28.2,18.9,9.9,84,63,53,17.72,17.72,10,3,10,0.00
2012-2-11,32.5,20.2,13.6,29.4,7.3,1.2,88,57,54,17.72,17.72,17,6,17,0.00
2012-2-12,36.5,23.0,12.9,20.4,9.0,0.6,57,55,52,17.72,17.72,13,4,13,0.00
2012-2-13,38.1,29.5,18.5,21.6,14.6,5.0,55,53,51,17.72,17.72,11,2,11,0.00
2012-2-14,36.1,34.1,30.7,31.9,24.7,17.5,88,69,52,17.72,17.72,10,2,10,0.08
2012-2-15,50.9,41.1,34.0,34.2,27.0,20.7,71,57,51,17.72,17.72,10,2,10,0.00
2012-2-16,47.8,43.8,36.7,47.7,35.8,24.9,100,75,53,17.72,17.72,13,2,13,0.28
2012-2-17,54.5,40.5,30.4,36.3,28.6,21.8,100,64,50,17.72,17.72,10,1,10,0.00
2012-2-18,51.4,40.2,31.6,33.8,23.8,16.3,53,52,51,17.72,17.72,11,3,11,0.00
2012-2-19,39.9,31.7,26.1,23.1,16.4,11.7,54,53,51,17.72,17.72,14,5,14,0.00
2012-2-20,50.2,33.4,18.1,32.6,19.7,10.2,77,57,50,17.72,17.72,9,2,9,0.00
2012-2-21,49.6,42.6,33.8,32.3,26.7,18.0,69,53,51,17.72,17.72,25,6,25,0.04
2012-2-22,58.5,49.0,38.5,39.4,32.1,24.2,60,52,49,17.72,17.72,26,6,26,0.00
2012-2-23,58.1,47.1,38.7,39.1,32.1,27.0,79,56,49,17.72,17.72,13,2,13,0.00
2012-2-24,48.2,40.0,31.6,33.8,25.6,16.5,74,56,51,17.72,17.72,25,5,25,0.00
2012-2-25,38.7,29.4,21.0,22.1,14.5,7.4,55,53,51,17.72,17.72,14,2,14,0.00
2012-2-26,55.9,37.0,20.7,37.2,21.3,7.1,55,53,50,17.72,17.72,13,3,13,0.00
2012-2-27,59.9,47.3,31.8,40.5,30.2,16.5,53,51,49,17.72,17.72,17,4,17,0.00
2012-2-28,62.4,43.9,26.1,42.9,27.3,12.7,61,52,49,17.72,17.72,9,2,9,0.00
2012-2-29,69.3,60.1,49.1,59.2,44.7,32.8,100,59,47,17.72,17.72,22,7,22,0.28
2012-3-1,59.4,46.4,38.7,40.0,29.5,22.1,53,51,49,17.72,17.72,17,4,17,0.00
2012-3-2,64.2,48.1,37.6,58.8,34.1,22.6,100,59,49,17.72,17.72,24,5,24,0.39
2012-3-3,46.9,37.7,32.5,30.2,22.0,17.3,57,53,51,17.72,17.72,18,6,18,0.00
2012-3-4,40.8,32.5,27.0,23.9,17.0,12.1,53,53,51,17.72,17.72,13,3,13,0.00
2012-3-5,41.4,31.8,27.3,26.4,18.7,12.8,88,59,51,17.72,17.72,12,3,12,0.00
2012-3-6,67.5,46.0,25.0,46.4,29.1,11.7,61,52,47,17.72,17.72,15,5,15,0.00
2012-3-7,70.5,58.9,46.8,49.3,39.8,30.1,52,49,47,17.72,17.72,25,7,25,0.00
2012-3-8,60.3,51.6,35.8,52.7,38.6,22.8,90,62,49,17.72,17.72,24,6,24,0.67
2012-3-9,48.7,39.1,30.9,31.2,23.4,15.5,61,53,51,17.72,17.72,13,4,13,0.00
2012-3-10,62.8,40.7,23.2,42.9,24.5,9.0,57,52,49,17.72,17.72,9,1,9,0.00
2012-3-11,75.9,55.2,37.6,52.9,36.6,21.1,53,50,46,17.72,17.72,15,3,15,0.00
2012-3-12,66.7,58.7,51.6,51.0,45.4,36.9,81,62,49,17.72,17.72,17,5,17,0.12
2012-3-13,80.4,66.1,57.7,56.5,48.6,38.9,69,54,45,17.72,17.72,17,4,17,0.00
2012-3-14,82.4,67.9,55.8,58.2,47.9,39.9,63,49,44,17.72,17.72,16,3,16,0.00
2012-3-15,81.5,65.8,57.0,57.3,48.4,43.6,93,54,44,17.72,17.72,17,4,17,0.43
2012-3-16,69.1,62.2,59.7,52.2,48.8,44.1,76,62,47,29.06,29.03,6,1,6,0.00
2012-3-17,80.8,66.3,55.8,60.8,52.5,44.6,100,65,44,29.09,28.97,11,2,11,0.00
2012-3-18,83.8,69.6,59.7,59.6,49.6,43.0,68,49,44,29.06,28.94,13,4,13,0.00
2012-3-19,87.1,73.1,63.0,61.4,51.5,44.3,51,47,43,29.03,28.91,12,2,12,0.00
2012-3-20,90.7,74.1,62.1,64.5,51.9,42.7,51,46,42,29.03,28.94,10,1,10,0.00
2012-3-21,93.4,75.2,63.3,68.1,52.7,43.2,48,46,42,29.06,28.94,9,1,9,0.00
2012-3-22,89.2,74.3,64.2,63.7,52.0,44.0,48,46,43,29.06,28.94,12,2,12,0.00
2012-3-23,68.9,63.9,56.8,62.1,54.4,44.6,100,73,47,28.94,28.67,10,1,10,0.67
2012-3-24,73.9,58.0,52.0,55.4,45.7,34.3,100,67,46,28.73,28.67,10,1,10,0.16
2012-3-25,68.7,58.1,49.6,52.5,43.7,34.6,100,60,47,28.88,28.73,9,1,9,0.00
2012-3-26,60.1,50.9,36.9,46.2,34.7,20.9,74,54,49,29.18,28.88,13,4,13,0.00
2012-3-27,74.7,51.1,32.5,52.4,33.1,17.3,53,50,46,29.18,28.85,10,2,10,0.00
2012-3-28,80.4,66.5,55.4,57.0,45.9,37.1,50,48,45,28.85,28.73,17,4,17,0.00
2012-3-29,72.3,54.9,41.9,50.2,36.9,27.9,63,51,46,28.94,28.82,9,2,9,0.00
2012-3-30,83.7,60.8,45.1,59.1,44.9,31.3,78,57,44,28.85,28.53,19,3,19,0.20
2012-3-31,58.6,48.6,39.4,49.1,36.4,31.1,90,63,51,28.79,28.67,8,1,8,0.00
2012-4-1,77.9,57.2,38.7,61.2,44.8,33.2,100,67,45,28.76,28.53,11,2,14,0.24
2012-4-2,76.8,58.8,46.8,61.4,42.4,30.8,100,56,45,28.82,28.59,13,2,13,0.08
2012-4-3,89.4,68.3,52.0,63.8,47.3,34.3,51,47,43,28.79,28.64,8,1,8,0.00
2012-4-4,71.6,62.5,52.9,51.7,44.2,35.3,72,51,47,28.67,28.61,12,2,12,0.00
2012-4-5,61.3,50.7,39.2,41.7,33.2,22.6,53,51,49,28.85,28.67,16,5,16,0.00
2012-4-6,69.6,47.7,32.0,48.3,31.3,20.6,75,53,47,29.06,28.85,15,3,15,0.00
2012-4-7,78.4,53.3,31.6,55.4,35.0,16.5,53,50,45,29.15,28.97,8,1,8,0.00
2012-4-8,70.7,57.3,47.1,49.5,38.5,30.4,52,50,47,29.03,28.94,13,2,13,0.00
2012-4-9,69.4,55.6,40.3,48.2,37.1,23.6,53,50,47,28.94,28.76,17,3,17,0.00
2012-4-10,57.7,45.7,29.7,38.4,28.8,14.5,53,51,50,28.91,28.76,17,3,17,0.00
2012-4-11,59.7,41.0,28.0,40.0,24.7,13.5,56,52,49,29.06,28.88,11,2,11,0.00
2012-4-12,72.9,49.2,30.7,50.9,32.6,18.0,72,53,46,29.12,28.94,11,1,11,0.00
2012-4-13,71.2,55.6,36.5,49.8,37.0,20.6,54,50,47,29.06,28.94,11,1,11,0.00
2012-4-14,63.1,55.9,49.6,58.8,46.4,34.3,100,73,50,28.97,28.79,10,1,10,1.26
2012-4-15,85.1,70.9,62.2,60.0,49.4,42.7,51,47,43,28.85,28.73,17,5,18,0.00
2012-4-16,74.5,65.8,51.1,56.2,46.2,33.6,76,50,46,29.06,28.67,22,5,22,0.12
2012-4-17,65.7,54.5,43.2,45.3,37.9,30.9,72,54,48,29.18,29.06,6,0,6,0.00
2012-4-18,79.7,58.2,42.1,56.5,40.0,28.1,70,51,45,29.09,28.88,8,1,8,0.00
2012-4-19,86.2,63.9,42.6,60.8,44.7,30.8,70,50,43,28.91,28.73,11,1,11,0.00
2012-4-20,81.3,63.4,47.3,56.8,45.8,36.4,100,54,45,28.73,28.56,15,3,15,0.24
2012-4-21,47.7,44.5,35.6,47.5,36.6,25.7,100,76,52,28.79,28.67,9,2,9,0.04
2012-4-22,51.8,42.6,34.7,35.9,29.8,20.9,94,62,51,28.76,28.67,14,2,14,0.00
2012-4-23,62.2,40.1,35.6,42.9,23.8,19.7,54,52,49,28.70,28.56,14,3,14,0.00
2012-4-24,46.9,39.6,36.7,30.1,23.2,20.7,53,51,51,28.59,28.53,10,1,10,0.00
2012-7-29,93.9,79.9,68.2,74.2,62.2,27.0,97,57,14,28.85,28.76,6,0,6,0.00
2012-7-30,95.5,78.7,64.6,75.7,66.4,57.5,100,69,49,28.79,28.70,8,1,8,0.00
2012-7-31,99.1,79.6,65.3,76.4,66.0,56.3,100,66,49,28.73,28.61,12,1,12,0.00
2012-8-1,99.3,79.7,66.7,76.8,67.4,57.5,100,69,49,28.70,28.61,6,1,6,0.00
2012-8-2,101.3,81.4,63.3,73.0,64.8,55.0,100,61,39,28.70,28.61,9,1,9,0.00
2012-8-3,87.8,79.2,71.4,74.7,61.2,54.6,100,56,42,28.73,28.61,8,1,8,0.00
2012-8-4,96.3,82.4,72.7,76.8,68.8,57.9,100,68,42,28.76,28.67,13,3,13,0.00
2012-8-5,89.6,78.8,70.0,81.8,69.0,62.0,100,72,53,28.88,28.73,14,3,14,0.00
2012-8-6,98.4,77.3,63.5,83.5,69.8,61.6,100,80,62,28.91,28.76,6,1,6,0.00
2012-8-7,99.5,79.5,61.7,83.5,70.7,58.9,100,76,62,28.79,28.70,6,1,6,0.00
2012-8-8,103.3,83.0,66.4,85.1,74.3,64.4,100,77,57,29.15,28.64,13,2,13,0.00
2012-8-9,94.3,75.5,66.7,81.3,70.1,64.0,100,85,62,29.15,28.94,15,2,15,0.00
2012-8-10,80.2,68.9,60.4,70.4,65.2,57.9,100,89,72,29.06,28.88,13,2,13,0.47
2012-8-11,87.4,68.0,58.8,72.8,63.5,57.9,100,87,62,29.18,29.06,9,2,9,0.00
2012-8-12,89.1,71.4,55.9,74.0,64.8,55.9,100,82,62,29.23,29.15,8,1,8,0.00
2012-8-13,85.6,73.4,66.9,71.2,65.7,61.2,82,77,62,29.18,29.06,10,1,10,0.00
2012-8-14,81.9,71.3,63.5,73.1,66.9,63.5,100,87,67,29.12,29.03,8,1,8,0.00
2012-8-15,96.1,74.6,60.4,81.5,67.8,60.4,100,81,57,29.18,29.12,8,1,8,0.00
2012-8-16,92.1,76.8,65.7,80.6,69.1,60.7,100,79,62,29.21,29.03,13,2,13,0.08
2012-8-17,88.3,71.4,60.3,74.1,66.7,58.7,100,86,62,29.15,29.03,8,1,8,0.04
2012-8-18,89.1,70.4,55.6,74.3,64.2,55.6,100,82,62,29.18,29.06,6,0,6,0.00
2012-8-19,88.7,70.1,58.5,74.0,64.5,56.2,100,84,62,29.09,29.03,6,1,6,0.00
2012-8-20,91.9,69.0,52.9,79.1,63.0,52.9,100,83,57,29.15,29.06,6,1,6,0.00
2012-8-21,86.5,69.0,55.9,72.0,64.0,55.9,100,85,62,29.26,29.15,6,0,6,0.12
2012-8-22,95.9,73.0,54.7,82.7,66.0,54.7,100,81,57,29.32,29.23,6,0,6,0.00
2012-8-23,97.0,76.1,57.0,83.7,68.7,57.0,100,80,57,29.32,29.23,9,1,9,0.00
2012-8-24,100.8,79.5,61.9,84.7,71.2,60.5,100,78,57,29.29,29.21,9,1,9,0.00
2012-8-25,100.2,82.0,66.2,84.8,72.5,63.2,100,74,57,29.29,29.21,9,1,9,0.00
2012-8-26,96.8,80.9,65.8,83.9,72.1,64.0,100,76,62,29.32,29.18,11,1,11,0.00
2012-8-27,87.8,76.9,71.6,81.5,71.1,65.6,100,84,62,29.23,29.15,13,1,13,0.08
2012-8-28,95.2,76.3,61.7,81.6,69.4,61.7,100,81,62,29.23,29.15,8,1,8,0.00
2012-8-29,96.1,74.8,59.9,81.5,67.1,59.9,100,79,57,29.26,29.18,8,1,8,0.00
2012-8-30,99.0,76.2,57.9,83.9,68.4,57.9,100,78,62,29.29,29.21,11,1,11,0.00
2012-8-31,91.6,80.8,71.8,80.1,72.6,65.4,100,78,62,29.35,29.23,13,2,13,0.00
2012-9-1,90.3,80.5,74.5,79.9,74.7,69.3,100,85,62,29.29,29.15,11,1,11,0.00
2012-9-2,87.1,75.6,68.9,81.9,74.5,68.9,100,97,62,29.18,29.00,10,1,10,0.83
2012-9-3,82.4,73.5,69.6,81.1,73.4,69.6,100,100,92,29.09,29.00,6,0,6,0.98
2012-9-4,94.5,77.9,71.8,81.8,74.9,70.8,100,92,62,29.09,29.03,9,1,9,0.00
2012-9-5,92.3,74.2,64.6,80.8,71.4,64.6,100,92,62,29.12,28.97,10,0,10,0.51
2012-9-6,92.8,73.6,63.7,80.9,71.3,63.7,100,93,67,29.15,29.06,8,1,8,0.04
2012-9-7,94.8,77.5,66.4,82.0,72.6,65.6,100,86,62,29.12,28.82,20,2,20,0.71
2012-9-8,79.3,65.8,55.9,68.2,63.0,55.8,100,91,72,29.09,28.82,9,1,9,1.30
2012-9-9,80.1,64.8,53.8,70.2,61.1,53.8,100,89,72,29.26,29.06,12,1,12,0.00
2012-9-10,86.7,65.5,50.7,72.2,61.0,50.7,100,87,62,29.38,29.23,8,0,8,0.00
2012-9-11,90.7,68.7,53.4,74.3,62.8,53.4,100,83,57,29.44,29.35,9,1,9,0.00
2012-9-12,91.8,72.5,59.0,74.2,65.4,57.9,100,80,57,29.44,29.35,10,1,10,0.00
2012-9-13,90.3,73.6,64.4,74.7,68.0,61.1,100,84,57,29.47,29.38,8,0,8,0.00
2012-9-14,76.8,63.3,51.6,70.0,61.7,51.6,100,95,72,29.44,29.35,8,1,8,0.00
2012-9-15,82.6,62.4,48.9,70.6,58.7,48.9,100,89,67,29.50,29.32,8,0,8,0.00
2012-9-16,89.2,67.4,52.7,74.3,61.8,52.7,100,84,62,29.32,29.18,9,0,9,0.00
2012-9-17,75.4,66.6,58.8,70.3,64.9,57.4,100,95,72,29.21,28.91,10,1,10,0.00
2012-9-18,73.8,62.6,45.1,66.1,61.2,44.8,100,96,77,29.21,28.82,9,2,9,0.00
2012-9-19,78.8,56.2,39.4,68.5,53.4,39.4,100,91,72,29.32,29.21,8,1,8,0.00
2012-9-20,75.2,61.2,49.6,67.2,58.6,49.6,100,92,77,29.23,29.09,10,1,11,0.00
2012-9-21,74.5,65.6,54.0,66.8,61.8,54.0,100,88,77,29.18,28.88,16,2,16,0.16
2012-9-22,73.9,58.8,40.3,66.1,56.9,40.3,100,94,77,29.29,28.94,22,2,22,0.71
2012-9-23,69.1,50.5,37.0,63.0,49.2,37.0,100,96,82,29.38,29.29,9,1,9,0.00
2012-9-24,76.1,55.8,38.7,66.4,53.4,38.5,100,92,72,29.41,29.23,12,2,12,0.00
2012-9-25,66.9,60.0,53.8,66.9,59.4,53.0,100,98,92,29.23,29.12,9,2,9,0.00
2012-9-26,76.6,66.0,60.4,74.3,65.7,60.4,100,99,87,29.26,29.15,10,1,10,0.20
2012-9-27,78.6,66.2,61.0,75.0,65.9,61.0,100,99,87,29.29,29.23,9,1,9,0.20
2012-9-28,70.5,61.9,57.9,70.3,61.9,57.9,100,100,100,29.29,29.18,5,0,5,0.00
2012-9-29,78.1,63.5,51.8,68.3,60.2,51.8,100,90,72,29.23,29.12,6,0,6,0.00
2012-9-30,75.9,60.9,49.8,67.3,58.1,49.8,100,91,72,29.12,29.00,6,1,6,0.00
2012-10-1,65.1,56.4,50.7,61.2,55.4,50.7,100,97,87,29.06,28.85,12,2,12,0.71
2012-10-2,81.3,64.5,56.8,79.2,64.5,56.8,100,100,92,29.09,28.82,9,0,9,0.00
2012-10-3,76.5,63.7,57.6,68.7,61.8,57.6,100,94,72,29.29,29.09,12,2,12,0.00
2012-10-4,80.8,66.2,55.8,70.4,62.6,55.8,100,89,67,29.35,29.29,11,2,11,0.00
2012-10-5,77.0,61.0,42.6,70.6,59.4,42.6,100,95,72,29.29,29.15,10,2,10,0.16
2012-10-6,62.1,47.7,38.1,59.4,47.3,38.1,100,99,92,29.29,29.18,9,1,9,0.39
2012-10-7,55.0,44.5,35.1,53.4,44.5,35.1,100,100,97,29.32,29.23,10,1,10,0.00
2012-10-8,65.8,45.4,32.5,61.9,44.8,32.4,100,98,87,29.38,29.26,8,1,8,0.00
2012-10-9,69.3,50.9,36.9,63.4,49.7,36.9,100,96,82,29.32,29.12,10,2,10,0.00
2012-10-10,58.8,48.8,35.2,56.5,48.4,35.2,100,99,92,29.38,29.09,11,3,11,0.00
2012-10-11,66.2,48.1,32.5,62.0,47.2,32.5,100,97,82,29.44,29.32,12,1,12,0.00
2012-10-12,64.6,50.4,40.3,60.6,49.7,40.3,100,97,87,29.53,29.32,10,1,10,0.00
2012-10-13,77.2,58.8,40.5,68.6,56.6,40.5,100,93,72,29.47,29.18,14,3,14,0.00
2012-10-14,72.9,66.1,59.9,68.7,64.3,59.9,100,94,77,29.18,28.88,22,6,22,0.16
2012-10-15,66.2,54.5,43.3,61.2,53.6,43.3,100,97,82,29.12,28.97,9,3,9,0.16
2012-10-16,70.7,53.4,37.0,64.9,51.4,37.0,100,93,82,29.18,28.97,8,1,8,0.16
2012-10-17,78.8,64.0,53.1,69.0,59.8,0.0,100,87,72,28.97,28.73,14,4,14,0.00
2012-10-18,66.7,57.1,51.1,62.0,55.8,51.1,100,96,82,28.85,28.64,15,4,15,0.04
2012-10-19,57.2,50.1,45.7,56.2,49.9,45.5,100,99,92,28.88,28.76,13,4,13,0.12
2012-10-20,58.3,48.2,40.5,56.5,48.1,40.5,100,100,92,29.15,28.88,12,2,12,0.04
2012-10-21,72.5,54.7,39.2,65.6,52.5,39.0,100,93,77,29.29,29.15,10,1,10,0.00
2012-10-22,77.2,65.0,53.1,67.5,60.7,52.8,100,86,72,29.29,29.18,13,2,13,0.00
2012-10-23,83.7,69.8,60.3,71.6,63.6,57.9,92,81,67,29.23,29.15,15,3,15,0.00
2012-10-24,81.7,69.8,62.2,70.6,63.5,58.7,92,81,67,29.29,29.21,13,2,13,0.00
2012-10-25,81.1,67.9,53.8,70.6,62.4,53.7,100,83,67,29.23,29.12,14,3,14,0.00
2012-10-26,66.9,52.0,45.3,62.0,51.1,45.3,100,97,82,29.32,29.12,10,4,10,0.35
2012-10-27,45.3,45.3,45.3,45.3,45.3,45.3,100,100,100,29.29,29.29,4,4,6,1.28
2012-10-28,49.1,45.8,40.8,49.1,45.8,40.8,100,100,100,29.21,29.18,14,5,14,0.00
2012-10-29,44.6,41.7,37.6,44.6,41.7,37.6,100,100,100,29.21,28.88,15,5,15,0.00
2012-10-30,42.3,38.6,33.8,42.3,38.6,33.8,100,100,100,28.88,28.70,14,6,14,0.12
2012-10-31,42.1,39.4,36.9,42.1,39.4,36.9,100,100,100,29.00,28.79,11,4,11,0.04
2012-11-1,55.2,45.4,35.4,54.4,45.4,35.4,100,100,97,29.03,28.94,12,4,12,0.00
2012-11-2,53.6,43.7,33.8,53.4,43.7,33.3,100,100,97,29.23,28.97,8,2,8,0.00
2012-11-3,46.0,37.8,30.2,46.0,37.8,30.2,100,100,100,29.32,29.21,8,1,8,0.08
2012-11-4,53.1,38.9,30.0,52.9,38.9,29.8,100,100,100,29.29,29.26,8,1,8,0.00
2012-11-5,53.8,37.1,23.9,53.2,37.1,23.9,100,100,97,29.32,29.21,7,0,7,0.00
2012-11-6,57.9,40.7,27.1,56.2,40.5,27.1,100,99,92,29.23,29.06,6,0,6,0.00
2012-11-7,55.8,44.2,36.3,54.9,44.1,36.1,100,100,97,29.23,29.03,8,1,8,0.00
2012-11-8,57.2,41.3,28.0,55.8,41.2,28.0,100,99,92,29.38,29.23,8,0,8,0.00
2012-11-9,63.0,48.5,33.6,60.1,47.6,33.6,100,97,87,29.38,29.26,9,2,9,0.00
2012-11-10,73.8,60.5,51.1,65.9,57.7,51.1,100,91,77,29.35,29.26,15,5,15,0.00
2012-11-11,71.6,60.8,51.6,65.6,58.0,51.6,100,91,82,29.38,29.23,21,6,21,0.00
2012-11-12,62.4,46.0,30.7,60.1,45.6,30.6,100,99,92,29.53,29.15,16,4,16,0.63
2012-11-13,46.6,33.8,25.9,46.4,33.8,25.9,100,100,100,29.65,29.53,8,1,8,0.04
2012-11-14,45.3,33.5,23.5,45.3,33.5,23.5,100,100,100,29.65,29.50,10,1,10,0.00
2012-11-15,49.1,36.2,25.7,48.7,36.2,25.7,100,100,100,29.50,29.44,6,0,6,0.00
2012-11-16,52.9,39.5,27.9,52.7,39.5,27.9,100,100,100,29.62,29.50,8,1,8,0.00
2012-11-17,60.8,43.6,30.2,58.5,43.2,30.2,100,99,92,29.68,29.59,8,1,8,0.00
2012-11-18,65.1,45.6,31.1,60.8,44.9,31.1,100,98,87,29.59,29.50,6,0,6,0.00
2012-11-19,64.6,47.9,35.4,60.3,47.2,35.4,100,98,87,29.50,29.32,5,0,5,0.00
2012-11-20,68.2,51.9,40.1,62.3,51.1,40.1,100,97,82,29.32,29.21,5,0,5,0.00
2012-11-21,67.1,53.0,43.7,62.0,51.8,43.7,100,96,82,29.41,29.26,6,0,6,0.00
2012-11-22,68.2,54.0,41.4,62.3,52.4,41.4,100,95,82,29.35,29.18,13,3,13,0.00
2012-11-23,57.2,45.1,30.2,56.2,44.9,30.2,100,99,92,29.32,29.09,17,6,17,0.00
2012-11-24,35.2,29.1,23.4,35.2,29.1,23.2,100,100,100,29.35,29.26,8,2,8,0.00
2012-11-25,47.8,36.8,24.8,47.7,36.8,24.8,100,100,100,29.26,29.06,13,3,13,0.00
2012-11-26,57.0,42.7,30.7,56.0,42.6,30.7,100,100,97,29.38,29.18,12,1,12,0.00
2012-11-27,41.5,32.9,25.3,41.5,32.9,25.3,100,100,100,29.47,29.35,8,2,9,0.00
2012-11-28,47.1,33.2,23.7,46.9,33.2,23.7,100,100,100,29.53,29.44,9,1,9,0.00
2012-11-29,51.4,38.7,25.9,51.3,38.7,25.9,100,100,100,29.53,29.35,13,2,13,0.00
2012-11-30,60.3,47.9,38.1,57.9,47.5,38.1,100,99,92,29.38,29.29,15,4,15,0.00
2012-12-1,65.5,55.3,48.2,61.3,54.2,48.2,100,96,87,29.41,29.29,16,4,16,0.00
2012-12-2,59.2,57.0,52.5,59.2,56.5,52.5,100,98,92,29.29,29.21,15,4,15,0.55
2012-12-3,72.5,63.0,58.1,68.7,61.4,58.1,100,95,77,29.29,29.23,13,4,13,0.04
2012-12-4,65.8,56.3,42.4,65.0,55.8,42.4,100,98,92,29.35,29.18,17,4,17,0.08
2012-12-5,49.3,39.9,29.3,49.3,39.9,29.3,100,100,100,29.50,29.35,9,1,9,0.00
2012-12-6,51.8,38.7,25.5,51.8,38.7,25.5,100,100,100,29.41,29.12,7,1,7,0.00
2012-12-7,55.2,51.2,46.4,55.2,51.2,46.4,100,100,100,29.15,29.00,9,0,9,0.83
2012-12-8,54.9,51.4,45.9,54.9,51.4,45.9,100,100,100,29.18,29.00,8,1,8,0.04
2012-12-9,59.9,51.3,44.8,59.9,51.3,44.8,100,100,100,29.18,28.85,9,3,9,0.71
2012-12-10,55.6,40.3,31.3,55.6,40.3,31.3,100,100,100,29.09,28.85,8,3,8,0.04
2012-12-11,36.9,30.8,26.1,36.7,30.8,26.1,100,100,100,29.38,29.09,8,2,8,0.04
2012-12-12,47.3,31.6,21.4,47.1,31.6,21.4,100,100,100,29.53,29.38,6,0,6,0.00
2012-12-13,50.5,36.4,22.8,50.4,36.4,22.8,100,100,100,29.53,29.38,8,1,8,0.00
2012-12-14,57.4,42.8,31.5,56.2,42.7,31.5,100,100,92,29.44,29.29,11,2,11,0.00
2012-12-15,53.8,46.4,38.8,53.4,46.4,38.8,100,100,97,29.29,28.94,14,3,14,0.04
2012-12-16,62.8,56.1,50.4,62.4,55.6,50.4,100,98,87,28.97,28.82,17,4,17,0.00
2012-12-17,50.5,45.6,43.0,50.5,45.6,43.0,100,100,100,28.91,28.70,10,0,10,0.71
2012-12-18,43.3,39.4,36.5,43.3,39.4,36.5,100,100,100,29.03,28.79,15,3,15,0.00
2012-12-19,50.0,42.0,35.1,50.0,42.0,35.1,100,100,100,29.21,28.94,12,2,12,0.00
2012-12-20,51.8,43.9,31.6,51.8,43.9,31.6,100,100,100,29.09,28.44,23,8,25,0.75
2012-12-21,31.6,27.4,25.3,31.6,27.4,25.3,100,100,100,29.21,28.67,24,8,24,0.00
2012-12-22,37.6,28.8,23.9,37.6,28.8,23.9,100,100,100,29.38,29.21,10,3,10,0.00
2012-12-23,51.6,36.8,27.9,51.6,36.8,27.9,100,100,100,29.21,29.06,9,2,9,0.00
2012-12-24,41.5,35.6,30.6,41.5,35.6,30.6,100,100,100,29.15,28.91,8,1,8,0.04
2012-12-25,34.3,32.5,30.7,34.3,32.5,30.7,100,100,100,29.32,29.15,15,3,15,0.00
2012-12-26,33.6,31.3,27.0,33.6,31.3,27.0,100,100,100,29.15,28.70,20,2,20,0.12
2012-12-27,34.5,27.6,24.4,34.5,27.6,24.4,100,100,100,29.29,29.06,0,0,0,0.00
2012-12-28,35.4,30.6,24.4,35.4,30.6,24.4,100,100,100,29.29,28.97,0,0,0,0.00
2012-12-29,32.7,29.8,24.8,32.7,29.8,24.8,100,100,100,29.32,28.88,0,0,0,0.00
2012-12-30,34.0,25.5,21.0,34.0,25.5,21.0,100,100,100,29.56,29.32,0,0,0,0.00
2012-12-31,36.9,31.5,24.3,36.9,31.5,24.3,100,100,100,29.47,29.21,10,1,10,0.04
2013-1-1,35.1,30.9,23.4,35.1,30.9,23.4,100,100,100,29.26,29.15,8,1,8,0.00